Time;durP1;ratioP1;P1;durP2;ratioP2;P2;SDS_P1;SDS_P2;PMS_P1;PMS_P2;Temp;Humidity;BMP_temperature;BMP_pressure;BME280_temperature;BME280_humidity;BME280_pressure;Samples;Min_cycle;Max_cycle;Signal;HPM_P1;HPM_P2
2022/03/22 00:01:26;;;;;;;16.27;11.60;;;20.90;41.20;;;;;;4972454;28;20030;-73
2022/03/22 00:03:52;;;;;;;17.30;11.95;;;20.90;41.20;;;;;;4970788;28;20570;-72
2022/03/22 00:06:18;;;;;;;16.45;12.10;;;20.90;41.20;;;;;;4971241;28;20026;-72
2022/03/22 00:08:45;;;;;;;16.98;11.52;;;20.90;41.20;;;;;;4971392;28;20567;-72
2022/03/22 00:11:11;;;;;;;15.77;11.43;;;20.90;41.10;;;;;;4972408;28;20037;-72
2022/03/22 00:13:38;;;;;;;18.73;11.95;;;20.90;41.20;;;;;;4971144;28;20404;-72
2022/03/22 00:16:04;;;;;;;16.23;11.25;;;20.90;41.20;;;;;;4972663;28;20050;-72
2022/03/22 00:18:30;;;;;;;16.65;10.88;;;20.90;41.20;;;;;;4971062;28;20387;-72
2022/03/22 00:20:57;;;;;;;18.10;11.68;;;20.90;41.20;;;;;;4972282;28;20253;-72
2022/03/22 00:23:23;;;;;;;14.98;10.82;;;20.90;41.30;;;;;;4972165;28;20365;-72
2022/03/22 00:25:49;;;;;;;16.63;11.13;;;20.90;41.20;;;;;;4972482;28;20062;-71
2022/03/22 00:28:15;;;;;;;16.17;11.57;;;20.90;41.30;;;;;;4971018;28;20081;-72
2022/03/22 00:30:41;;;;;;;16.13;10.95;;;20.90;41.30;;;;;;4972345;28;20507;-72
2022/03/22 00:33:08;;;;;;;15.50;10.57;;;20.90;41.20;;;;;;4971862;28;20023;-72
2022/03/22 00:35:36;;;;;;;15.55;11.23;;;20.90;41.30;;;;;;4971037;28;20035;-72
2022/03/22 00:38:09;;;;;;;16.98;11.23;;;20.90;41.30;;;;;;4972062;28;20503;-72
2022/03/22 00:40:35;;;;;;;16.13;11.38;;;20.90;41.30;;;;;;4972291;28;20031;-72
2022/03/22 00:43:01;;;;;;;15.82;10.15;;;20.90;41.20;;;;;;4954497;28;20435;-72
2022/03/22 00:45:32;;;;;;;14.75;10.43;;;21.00;41.80;;;;;;4972097;28;20027;-72
2022/03/22 00:47:59;;;;;;;14.95;10.32;;;20.90;41.20;;;;;;4970988;28;20038;-72
2022/03/22 00:50:31;;;;;;;14.82;10.45;;;21.00;41.20;;;;;;4972124;28;20514;-72
2022/03/22 00:52:57;;;;;;;14.25;10.70;;;21.00;41.30;;;;;;5002978;28;20030;-72
2022/03/22 00:55:24;;;;;;;15.60;10.07;;;20.90;41.20;;;;;;4971964;28;20030;-72
2022/03/22 00:57:51;;;;;;;15.27;10.93;;;20.90;41.30;;;;;;4975046;28;20043;-72
2022/03/22 01:00:19;;;;;;;15.05;10.38;;;20.90;41.20;;;;;;4974693;28;20030;-72
2022/03/22 01:02:50;;;;;;;14.23;9.88;;;20.90;41.20;;;;;;4974114;28;20053;-72
2022/03/22 01:05:19;;;;;;;16.02;10.60;;;20.90;41.20;;;;;;4975641;28;20347;-72
2022/03/22 01:08:05;;;;;;;15.75;10.52;;;20.90;41.80;;;;;;4975568;28;20484;-73
2022/03/22 01:10:33;;;;;;;13.93;9.63;;;20.90;41.20;;;;;;4975673;28;20452;-73
2022/03/22 01:12:58;;;;;;;14.70;10.00;;;20.90;41.20;;;;;;4973844;28;20110;-72
2022/03/22 01:15:33;;;;;;;15.18;10.70;;;20.90;41.30;;;;;;4975563;28;20324;-72
2022/03/22 01:18:08;;;;;;;15.98;10.10;;;20.90;41.90;;;;;;4974208;28;20070;-72
2022/03/22 01:20:43;;;;;;;15.70;10.30;;;20.90;41.20;;;;;;4975251;28;20027;-72
2022/03/22 01:23:10;;;;;;;14.80;10.23;;;20.90;41.30;;;;;;4974882;28;20105;-72
2022/03/22 01:25:37;;;;;;;15.38;10.18;;;20.90;41.30;;;;;;5006798;28;20030;-72
2022/03/22 01:28:05;;;;;;;15.20;10.27;;;20.90;41.30;;;;;;5006488;28;20078;-72
2022/03/22 01:30:32;;;;;;;16.67;10.23;;;20.90;41.30;;;;;;4975557;28;20106;-72
2022/03/22 01:32:58;;;;;;;14.73;9.60;;;20.90;41.30;;;;;;4974619;28;20479;-72
2022/03/22 01:35:26;;;;;;;16.48;10.15;;;20.90;41.30;;;;;;4975129;28;20070;-73
2022/03/22 01:37:55;;;;;;;14.65;9.65;;;20.90;41.30;;;;;;4974775;28;20444;-72
2022/03/22 01:40:23;;;;;;;14.77;9.52;;;20.90;41.30;;;;;;4973847;28;20539;-72
2022/03/22 01:42:50;;;;;;;14.98;10.27;;;20.90;41.30;;;;;;4974509;28;20030;-73
2022/03/22 01:45:16;;;;;;;14.52;9.82;;;20.90;41.30;;;;;;4975097;28;20420;-72
2022/03/22 01:47:44;;;;;;;16.05;10.27;;;20.90;41.40;;;;;;4957677;28;20027;-73
2022/03/22 01:50:14;;;;;;;13.52;9.55;;;20.90;41.30;;;;;;4975112;28;20380;-72
2022/03/22 01:52:42;;;;;;;13.10;9.55;;;20.90;41.30;;;;;;4974644;28;20484;-72
2022/03/22 01:55:10;;;;;;;15.73;9.85;;;20.90;41.30;;;;;;4974972;28;20094;-72
2022/03/22 01:57:36;;;;;;;13.75;9.93;;;20.90;41.30;;;;;;4957165;28;20536;-72
2022/03/22 02:00:07;;;;;;;14.52;9.82;;;20.90;41.20;;;;;;4974802;28;20114;-72
2022/03/22 02:08:13;;;;;;;14.70;9.55;;;20.90;41.30;;;;;;4973666;28;20392;-72
2022/03/22 02:10:39;;;;;;;14.55;9.52;;;20.90;41.40;;;;;;4974722;28;20034;-72
2022/03/22 02:13:05;;;;;;;13.30;9.00;;;20.90;41.30;;;;;;4974020;28;20438;-72
2022/03/22 02:15:31;;;;;;;14.45;9.48;;;20.90;41.40;;;;;;4974657;28;20030;-72
2022/03/22 02:17:59;;;;;;;14.10;9.55;;;20.90;41.30;;;;;;4974214;28;20101;-72
2022/03/22 02:20:25;;;;;;;13.02;8.98;;;20.90;41.30;;;;;;4974329;28;20027;-72
2022/03/22 02:22:55;;;;;;;15.10;10.25;;;20.90;41.30;;;;;;4974064;28;20110;-72
2022/03/22 02:25:21;;;;;;;12.65;9.15;;;20.90;41.30;;;;;;4974596;28;20107;-72
2022/03/22 02:27:52;;;;;;;13.93;9.18;;;20.90;41.30;;;;;;4973959;28;20494;-72
2022/03/22 02:30:18;;;;;;;13.57;9.57;;;20.90;41.30;;;;;;4973261;28;20039;-72
2022/03/22 02:32:55;;;;;;;14.20;9.30;;;20.90;41.30;;;;;;4972943;28;20493;-72
2022/03/22 02:35:23;;;;;;;15.18;9.65;;;20.90;41.40;;;;;;4974046;28;20026;-72
2022/03/22 02:37:49;;;;;;;14.35;9.65;;;20.90;41.40;;;;;;4972670;28;20031;-72
2022/03/22 02:40:16;;;;;;;14.05;9.35;;;20.90;41.30;;;;;;4972662;28;20030;-72
2022/03/22 02:42:43;;;;;;;14.02;9.23;;;20.90;41.40;;;;;;4973575;28;20031;-72
2022/03/22 02:45:11;;;;;;;14.10;9.48;;;20.90;41.30;;;;;;4972575;28;20384;-72
2022/03/22 02:47:42;;;;;;;14.73;9.27;;;20.90;41.40;;;;;;5004612;28;20480;-72
2022/03/22 02:50:09;;;;;;;12.80;9.00;;;20.90;41.30;;;;;;4956411;28;20051;-72
2022/03/22 02:52:35;;;;;;;13.13;9.13;;;20.90;41.30;;;;;;4973459;28;20428;-72
2022/03/22 02:55:03;;;;;;;13.73;8.98;;;20.90;41.40;;;;;;4972673;28;20065;-72
2022/03/22 02:57:29;;;;;;;13.63;9.02;;;20.90;41.30;;;;;;4972632;28;20066;-72
2022/03/22 02:59:55;;;;;;;13.35;9.18;;;20.90;41.40;;;;;;4972183;28;20062;-72
2022/03/22 03:02:20;;;;;;;13.88;9.18;;;20.90;41.30;;;;;;4973256;28;20034;-72
2022/03/22 03:04:46;;;;;;;14.18;9.07;;;20.90;41.30;;;;;;4972144;28;20491;-72
2022/03/22 03:07:12;;;;;;;13.05;9.23;;;20.90;41.30;;;;;;4973438;28;20110;-72
2022/03/22 03:09:38;;;;;;;14.32;9.15;;;20.90;41.30;;;;;;4973147;28;20038;-72
2022/03/22 03:12:04;;;;;;;13.75;9.35;;;20.90;41.30;;;;;;4973158;28;20118;-72
2022/03/22 03:14:39;;;;;;;13.38;8.82;;;20.90;41.30;;;;;;4972045;28;20062;-72
2022/03/22 03:17:10;;;;;;;13.23;8.82;;;20.90;41.30;;;;;;4973326;28;20031;-72
2022/03/22 03:19:36;;;;;;;13.18;9.05;;;20.90;41.40;;;;;;4973031;28;20531;-72
2022/03/22 03:22:03;;;;;;;13.70;8.65;;;20.90;41.30;;;;;;4973317;28;20023;-72
2022/03/22 03:24:30;;;;;;;14.50;8.93;;;20.90;41.40;;;;;;4971868;28;20038;-72
2022/03/22 03:26:57;;;;;;;12.75;8.85;;;20.90;41.40;;;;;;4973247;28;20084;-72
2022/03/22 03:29:23;;;;;;;12.15;8.15;;;20.90;41.40;;;;;;4971953;28;20031;-72
2022/03/22 03:31:49;;;;;;;14.35;9.23;;;20.90;41.40;;;;;;4973037;28;20039;-72
2022/03/22 03:34:15;;;;;;;13.27;8.63;;;20.90;41.40;;;;;;4972872;28;20538;-72
2022/03/22 03:36:41;;;;;;;13.88;8.70;;;20.90;41.50;;;;;;4973056;28;20038;-72
2022/03/22 03:39:08;;;;;;;12.38;8.38;;;20.90;41.30;;;;;;4987456;28;20027;-72
2022/03/22 03:47:07;;;;;;;12.25;8.20;;;20.80;41.40;;;;;;4972655;28;20049;-72
2022/03/22 03:49:35;;;;;;;14.52;9.45;;;20.90;41.40;;;;;;4972624;28;20495;-72
2022/03/22 03:52:02;;;;;;;13.18;8.90;;;20.90;41.30;;;;;;4972316;28;20047;-72
2022/03/22 03:54:28;;;;;;;13.85;8.90;;;20.90;41.40;;;;;;5003653;28;20128;-72
2022/03/22 03:56:54;;;;;;;12.63;8.40;;;20.90;41.40;;;;;;4972602;28;20155;-72
2022/03/22 03:59:20;;;;;;;13.23;8.10;;;20.90;41.40;;;;;;4955210;28;20114;-72
2022/03/22 04:01:47;;;;;;;12.60;8.10;;;20.90;41.40;;;;;;4972361;28;20023;-72
2022/03/22 04:04:13;;;;;;;13.02;8.20;;;20.90;41.40;;;;;;4971883;28;20376;-72
2022/03/22 04:06:38;;;;;;;12.98;8.73;;;20.90;41.40;;;;;;4972386;28;20114;-72
2022/03/22 04:09:04;;;;;;;11.82;8.40;;;20.90;41.30;;;;;;4972043;28;20499;-72
2022/03/22 04:11:30;;;;;;;12.15;8.13;;;20.90;41.40;;;;;;4972263;28;20117;-72
2022/03/22 04:13:55;;;;;;;12.43;8.20;;;20.90;41.30;;;;;;4970888;28;20038;-72
2022/03/22 04:16:22;;;;;;;13.23;8.68;;;20.90;41.40;;;;;;4972518;28;20156;-72
2022/03/22 04:18:48;;;;;;;12.15;8.25;;;20.90;41.20;;;;;;4971100;28;20125;-72
2022/03/22 04:21:14;;;;;;;11.60;7.90;;;20.90;41.40;;;;;;4972605;28;20055;-72
2022/03/22 04:23:41;;;;;;;11.20;7.75;;;20.90;41.30;;;;;;4971789;28;20081;-72
2022/03/22 04:26:07;;;;;;;11.65;8.10;;;20.90;41.40;;;;;;4971158;28;20041;-73
2022/03/22 04:34:01;;;;;;;12.95;8.43;;;20.90;41.40;;;;;;4975881;28;20043;-72
2022/03/22 04:36:30;;;;;;;12.77;8.18;;;20.90;41.40;;;;;;4976252;28;20522;-72
2022/03/22 04:38:56;;;;;;;14.48;8.30;;;20.90;41.40;;;;;;4974819;28;20034;-72
2022/03/22 04:41:23;;;;;;;12.40;8.20;;;20.90;41.40;;;;;;4974734;28;20502;-72
2022/03/22 04:43:50;;;;;;;12.05;7.93;;;20.90;41.30;;;;;;4975725;28;20404;-72
2022/03/22 04:46:18;;;;;;;12.48;8.00;;;20.80;41.30;;;;;;4974922;28;20027;-72
2022/03/22 04:48:47;;;;;;;13.30;8.07;;;20.90;41.40;;;;;;4975904;28;20031;-72
2022/03/22 04:56:43;;;;;;;12.25;8.32;;;20.80;41.40;;;;;;4974811;28;20076;-72
2022/03/22 04:59:09;;;;;;;12.32;8.20;;;20.80;41.30;;;;;;4976135;28;20031;-71
2022/03/22 05:01:35;;;;;;;13.07;8.23;;;20.90;41.40;;;;;;4975773;28;20034;-72
2022/03/22 05:04:01;;;;;;;11.35;7.93;;;20.90;41.40;;;;;;4975387;28;20286;-72
2022/03/22 05:06:27;;;;;;;12.35;7.40;;;20.80;41.30;;;;;;4990888;28;20035;-72
2022/03/22 05:08:56;;;;;;;12.50;8.05;;;20.80;41.30;;;;;;4975600;28;20033;-71
2022/03/22 05:11:22;;;;;;;11.93;7.40;;;20.80;41.30;;;;;;4974438;28;20041;-72
2022/03/22 05:13:48;;;;;;;12.48;8.05;;;20.80;41.20;;;;;;4975190;28;20122;-72
2022/03/22 05:16:17;;;;;;;12.27;8.05;;;20.80;41.30;;;;;;4975304;28;20115;-72
2022/03/22 05:18:42;;;;;;;13.35;8.25;;;20.80;41.30;;;;;;4975230;28;20031;-72
2022/03/22 05:21:08;;;;;;;11.30;7.47;;;20.90;41.40;;;;;;4975291;28;20041;-71
2022/03/22 05:23:34;;;;;;;11.93;7.95;;;20.90;41.40;;;;;;4975009;28;20502;-71
2022/03/22 05:26:00;;;;;;;11.15;7.70;;;20.90;41.40;;;;;;4974157;28;20031;-72
2022/03/22 05:28:26;;;;;;;13.00;7.50;;;20.90;41.40;;;;;;4975351;28;20027;-71
2022/03/22 05:30:52;;;;;;;11.85;7.90;;;20.90;41.40;;;;;;4975035;28;20035;-71
2022/03/22 05:33:17;;;;;;;14.93;7.68;;;20.90;41.40;;;;;;4957581;28;20085;-71
2022/03/22 05:35:43;;;;;;;10.80;7.75;;;20.80;41.40;;;;;;4974837;28;20058;-72
2022/03/22 05:38:09;;;;;;;10.90;7.20;;;20.90;41.50;;;;;;4974971;28;20117;-71
2022/03/22 05:40:35;;;;;;;12.65;7.50;;;20.90;41.40;;;;;;4973814;28;20054;-71
2022/03/22 05:43:01;;;;;;;11.20;7.70;;;20.80;41.30;;;;;;4972710;28;20038;-71
2022/03/22 05:45:27;;;;;;;11.77;7.57;;;20.80;41.90;;;;;;4974057;28;20475;-71
2022/03/22 05:47:53;;;;;;;11.77;7.72;;;20.80;41.30;;;;;;4974589;28;20033;-70
2022/03/22 05:50:19;;;;;;;12.20;7.30;;;20.90;41.30;;;;;;4974858;28;20058;-70
2022/03/22 05:52:47;;;;;;;12.90;7.78;;;20.90;41.40;;;;;;4974594;28;20440;-70
2022/03/22 05:55:13;;;;;;;9.75;6.88;;;20.80;41.30;;;;;;4973582;28;20483;-70
2022/03/22 05:57:39;;;;;;;11.77;7.10;;;20.80;41.30;;;;;;4974678;28;20027;-70
2022/03/22 06:00:07;;;;;;;10.02;7.18;;;20.80;41.30;;;;;;4973486;28;20066;-70
2022/03/22 06:02:37;;;;;;;13.10;7.72;;;20.80;41.30;;;;;;4974386;28;20107;-70
2022/03/22 06:05:03;;;;;;;;;;;20.80;41.30;;;;;;4974824;28;20022;-70
2022/03/22 06:07:29;;;;;;;11.88;7.78;;;20.80;41.30;;;;;;4974627;28;19921;-70
2022/03/22 06:09:54;;;;;;;11.63;7.55;;;20.80;41.30;;;;;;4974725;28;20030;-70
2022/03/22 06:12:20;;;;;;;11.20;7.50;;;20.80;41.30;;;;;;4973125;28;20041;-70
2022/03/22 06:14:46;;;;;;;11.45;7.57;;;20.90;41.30;;;;;;4973012;28;20075;-70
2022/03/22 06:17:11;;;;;;;11.85;7.60;;;20.80;41.30;;;;;;4973092;28;20109;-70
2022/03/22 06:19:37;;;;;;;11.85;7.20;;;20.80;41.30;;;;;;4974180;28;20034;-70
2022/03/22 06:22:03;;;;;;;12.02;7.70;;;20.80;41.30;;;;;;4972943;28;20058;-71
2022/03/22 06:24:29;;;;;;;13.05;7.47;;;20.80;41.30;;;;;;4974513;28;20065;-71
2022/03/22 06:26:54;;;;;;;10.00;6.95;;;20.80;41.40;;;;;;4974252;28;20027;-72
2022/03/22 06:29:20;;;;;;;9.93;6.78;;;20.80;41.30;;;;;;4974148;28;20389;-71
2022/03/22 06:31:46;;;;;;;12.05;7.18;;;20.90;41.30;;;;;;4972916;28;20081;-71
2022/03/22 06:34:11;;;;;;;10.73;7.45;;;20.90;41.30;;;;;;4974000;28;20089;-71
2022/03/22 06:36:37;;;;;;;10.90;7.30;;;20.90;41.30;;;;;;4973726;28;20109;-71
2022/03/22 06:39:04;;;;;;;11.30;7.03;;;20.90;41.30;;;;;;4973966;28;20487;-71
2022/03/22 06:41:29;;;;;;;12.25;7.72;;;20.90;41.40;;;;;;4973751;28;20023;-71
2022/03/22 06:43:55;;;;;;;11.63;7.00;;;20.90;41.20;;;;;;4988365;28;20031;-71
2022/03/22 06:46:22;;;;;;;12.73;7.55;;;20.90;41.30;;;;;;4973713;28;20042;-71
2022/03/22 06:48:48;;;;;;;11.43;6.80;;;20.90;41.20;;;;;;4972787;28;20443;-71
2022/03/22 06:51:14;;;;;;;11.30;7.50;;;20.90;41.30;;;;;;4973502;28;20502;-71
2022/03/22 06:53:39;;;;;;;11.77;7.60;;;20.90;41.20;;;;;;4973060;28;20089;-71
2022/03/22 06:56:05;;;;;;;11.65;6.90;;;20.90;41.30;;;;;;4973536;28;20077;-71
2022/03/22 06:58:32;;;;;;;10.07;6.63;;;20.90;41.30;;;;;;4973352;28;20037;-71
2022/03/22 07:00:58;;;;;;;11.23;7.13;;;20.90;41.20;;;;;;4973477;28;20023;-72
2022/03/22 07:03:24;;;;;;;13.70;7.07;;;21.00;41.20;;;;;;4973044;28;20023;-71
2022/03/22 07:05:49;;;;;;;11.23;6.68;;;21.00;41.20;;;;;;4973068;28;20027;-71
2022/03/22 07:08:15;;;;;;;11.10;6.72;;;20.90;41.10;;;;;;4972126;28;20035;-70
2022/03/22 07:10:41;;;;;;;11.55;6.65;;;21.00;41.10;;;;;;4972054;28;20447;-71
2022/03/22 07:13:10;;;;;;;11.40;7.72;;;20.90;41.00;;;;;;4973346;28;20506;-71
2022/03/22 07:15:38;;;;;;;11.68;7.05;;;21.00;41.10;;;;;;5004101;28;20050;-70
2022/03/22 07:18:06;;;;;;;10.75;7.13;;;21.00;41.10;;;;;;4973128;28;20030;-71
2022/03/22 07:20:32;;;;;;;10.63;7.15;;;21.00;41.10;;;;;;4973088;28;20483;-71
2022/03/22 07:22:59;;;;;;;11.27;7.22;;;21.00;41.30;;;;;;4971750;28;20388;-71
2022/03/22 07:25:25;;;;;;;10.80;6.95;;;21.10;41.50;;;;;;4973203;28;20117;-71
2022/03/22 07:27:51;;;;;;;9.73;6.85;;;21.00;41.70;;;;;;4972894;28;20101;-71
2022/03/22 07:30:17;;;;;;;11.05;7.10;;;21.00;41.80;;;;;;4971663;28;20427;-71
2022/03/22 07:32:44;;;;;;;11.40;7.18;;;21.00;41.90;;;;;;4972762;28;20018;-71
2022/03/22 07:35:11;;;;;;;10.07;6.38;;;21.10;42.00;;;;;;4973040;28;20518;-71
2022/03/22 07:37:38;;;;;;;10.07;6.38;;;21.10;42.10;;;;;;4972764;28;20591;-71
2022/03/22 07:40:07;;;;;;;10.75;6.80;;;21.10;42.10;;;;;;4972890;28;20046;-71
2022/03/22 07:42:33;;;;;;;10.52;6.90;;;21.20;42.10;;;;;;4972337;28;20392;-71
2022/03/22 07:45:01;;;;;;;10.07;6.72;;;21.10;42.10;;;;;;4971536;28;20027;-71
2022/03/22 07:47:28;;;;;;;11.38;6.18;;;21.10;42.10;;;;;;4972788;28;20058;-71
2022/03/22 07:53:00;;;;;;;11.07;6.60;;;21.20;42.10;;;;;;4972275;28;20220;-71
2022/03/22 07:55:28;;;;;;;9.57;6.20;;;21.20;42.20;;;;;;4972709;28;20066;-71
2022/03/22 07:57:54;;;;;;;8.65;6.10;;;21.20;42.20;;;;;;4971321;28;20037;-71
2022/03/22 08:00:20;;;;;;;10.02;6.28;;;21.20;42.20;;;;;;4972658;28;20026;-71
2022/03/22 08:03:03;;;;;;;10.38;6.63;;;21.20;42.20;;;;;;4972222;28;20532;-71
2022/03/22 08:05:30;;;;;;;9.70;6.10;;;21.20;42.20;;;;;;4971733;28;20035;-71
2022/03/22 08:07:56;;;;;;;10.65;6.60;;;21.30;42.30;;;;;;4971006;28;20423;-71
2022/03/22 08:10:23;;;;;;;10.15;6.45;;;21.30;42.30;;;;;;4971535;28;20265;-71
2022/03/22 08:12:49;;;;;;;10.60;6.55;;;21.30;42.20;;;;;;4987119;28;20027;-71
2022/03/22 08:15:16;;;;;;;10.30;6.70;;;21.30;42.30;;;;;;4972312;28;20050;-71
2022/03/22 08:17:42;;;;;;;10.50;6.78;;;21.30;42.30;;;;;;4972741;28;20042;-71
2022/03/22 08:20:10;;;;;;;9.57;6.68;;;21.30;42.30;;;;;;4972362;28;20042;-71
2022/03/22 08:22:49;;;;;;;10.20;6.75;;;21.30;42.30;;;;;;4971993;28;20027;-71
2022/03/22 08:25:16;;;;;;;11.05;6.40;;;21.30;42.30;;;;;;4971231;28;20085;-71
2022/03/22 08:27:42;;;;;;;10.38;6.32;;;21.30;42.30;;;;;;4972266;28;20035;-71
2022/03/22 08:30:09;;;;;;;10.38;6.72;;;21.30;42.30;;;;;;4972873;28;20443;-71
2022/03/22 08:32:35;;;;;;;11.23;6.53;;;21.30;42.50;;;;;;4971809;28;20031;-72
2022/03/22 08:35:01;;;;;;;11.25;6.85;;;21.30;42.30;;;;;;4972268;28;20074;-71
2022/03/22 08:37:27;;;;;;;9.80;6.53;;;21.30;42.30;;;;;;4972329;28;20035;-71
2022/03/22 08:39:52;;;;;;;10.88;7.00;;;21.40;42.50;;;;;;4972462;28;20106;-71
2022/03/22 08:42:18;;;;;;;10.32;6.50;;;21.30;42.40;;;;;;4970603;28;20034;-72
2022/03/22 08:44:44;;;;;;;11.63;6.70;;;21.30;42.40;;;;;;4972040;28;20411;-71
2022/03/22 08:47:10;;;;;;;11.07;6.70;;;21.40;42.50;;;;;;4970782;28;20254;-71
2022/03/22 08:49:35;;;;;;;11.73;6.95;;;21.40;42.50;;;;;;4971921;28;20062;-71
2022/03/22 08:52:01;;;;;;;11.38;6.85;;;21.40;42.50;;;;;;4971591;28;20124;-71
2022/03/22 08:54:27;;;;;;;10.45;6.80;;;21.40;42.50;;;;;;4972051;28;20030;-71
2022/03/22 08:56:53;;;;;;;10.90;6.68;;;21.40;42.50;;;;;;4972092;28;20157;-71
2022/03/22 08:59:19;;;;;;;11.32;6.78;;;21.40;42.50;;;;;;4971871;28;20082;-72
2022/03/22 09:01:45;;;;;;;9.98;6.55;;;21.40;42.50;;;;;;4971890;28;20027;-71
2022/03/22 09:06:55;;;;;;;10.93;6.82;;;21.50;42.50;;;;;;4971885;28;20121;-71
2022/03/22 09:09:21;;;;;;;11.77;7.15;;;21.50;42.50;;;;;;4971842;28;20117;-71
2022/03/22 09:11:46;;;;;;;10.55;6.93;;;21.50;42.60;;;;;;4971930;28;20033;-71
2022/03/22 09:14:12;;;;;;;10.10;6.85;;;21.50;43.20;;;;;;4971656;28;20150;-72
2022/03/22 09:16:39;;;;;;;11.93;7.15;;;21.50;42.60;;;;;;4972461;28;20077;-71
2022/03/22 09:19:04;;;;;;;10.82;6.85;;;21.50;42.60;;;;;;4975379;28;20165;-71
2022/03/22 09:21:30;;;;;;;9.77;6.40;;;21.50;42.60;;;;;;4975237;28;20109;-71
2022/03/22 09:23:56;;;;;;;11.45;6.85;;;21.50;42.60;;;;;;4975309;28;20031;-71
2022/03/22 09:26:22;;;;;;;11.43;6.97;;;21.50;42.60;;;;;;4974610;28;20507;-71
2022/03/22 09:28:52;;;;;;;10.02;6.57;;;21.50;42.70;;;;;;4973716;28;20033;-71
2022/03/22 09:31:24;;;;;;;10.65;6.07;;;21.50;42.70;;;;;;4974992;28;20030;-70
2022/03/22 09:33:51;;;;;;;16.17;7.32;;;21.50;42.70;;;;;;4973670;28;20035;-69
2022/03/22 09:36:17;;;;;;;13.18;8.07;;;21.50;41.70;;;;;;4974826;28;20465;-69
2022/03/22 09:38:44;;;;;;;16.33;10.10;;;21.40;37.80;;;;;;4975028;28;20027;-69
2022/03/22 09:41:13;;;;;;;17.70;9.27;;;21.20;31.30;;;;;;4975035;28;20050;-69
2022/03/22 09:43:44;;;;;;;27.90;10.25;;;21.00;30.60;;;;;;4968064;28;20031;-69
2022/03/22 09:46:10;;;;;;;16.77;9.05;;;20.90;31.10;;;;;;4972644;28;20065;-68
2022/03/22 09:48:36;;;;;;;14.48;8.88;;;20.90;31.40;;;;;;4974470;28;20121;-69
2022/03/22 09:53:48;;;;;;;15.55;9.48;;;20.80;28.90;;;;;;4973411;28;20045;-68
2022/03/22 09:56:13;;;;;;;15.95;9.73;;;20.70;28.10;;;;;;4974364;28;20396;-69
2022/03/22 09:58:39;;;;;;;16.45;9.88;;;20.60;28.40;;;;;;4974752;28;20559;-69
2022/03/22 10:01:05;;;;;;;15.07;9.43;;;20.50;27.40;;;;;;4973957;28;20628;-69
2022/03/22 10:03:31;;;;;;;16.63;10.75;;;20.50;28.20;;;;;;4973069;28;20085;-69
2022/03/22 10:06:02;;;;;;;17.80;10.02;;;20.50;27.20;;;;;;4973843;28;20026;-69
2022/03/22 10:08:28;;;;;;;16.60;10.55;;;20.40;25.90;;;;;;4974894;28;20039;-69
2022/03/22 10:11:00;;;;;;;21.17;11.07;;;20.40;26.10;;;;;;4973345;28;20074;-69
2022/03/22 10:13:28;;;;;;;17.30;10.27;;;20.40;27.40;;;;;;4974049;28;20026;-69
2022/03/22 10:16:02;;;;;;;21.30;10.50;;;20.40;27.30;;;;;;4972491;28;20479;-69
2022/03/22 10:18:27;;;;;;;17.23;10.27;;;20.40;26.10;;;;;;4974274;28;20030;-69
2022/03/22 10:21:01;;;;;;;25.85;15.50;;;20.40;26.70;;;;;;4973227;28;20081;-69
2022/03/22 10:23:27;;;;;;;27.88;16.38;;;20.40;25.30;;;;;;4972954;28;20030;-69
2022/03/22 10:26:03;;;;;;;27.85;14.00;;;20.40;26.90;;;;;;4972965;28;20499;-69
2022/03/22 10:28:29;;;;;;;18.38;12.35;;;20.30;25.40;;;;;;4973612;28;20034;-68
2022/03/22 10:30:56;;;;;;;17.15;10.63;;;20.30;26.20;;;;;;4973888;28;20530;-69
2022/03/22 10:33:22;;;;;;;16.55;9.65;;;20.30;25.50;;;;;;4973864;28;20058;-69
2022/03/22 10:35:48;;;;;;;19.90;10.90;;;20.30;25.80;;;;;;4972216;28;20507;-68
2022/03/22 10:38:18;;;;;;;17.95;10.43;;;20.30;25.00;;;;;;4973992;28;20645;-69
2022/03/22 10:40:47;;;;;;;17.52;9.93;;;20.30;25.40;;;;;;4974221;28;20365;-69
2022/03/22 10:43:22;;;;;;;17.20;10.30;;;20.20;24.30;;;;;;4971582;28;20480;-69
2022/03/22 10:45:58;;;;;;;16.27;9.10;;;20.20;24.40;;;;;;4972547;28;20027;-69
2022/03/22 10:48:32;;;;;;;14.73;9.38;;;20.30;25.10;;;;;;4973960;28;20027;-69
2022/03/22 10:50:59;;;;;;;16.27;10.27;;;20.30;25.30;;;;;;4973789;28;20033;-69
2022/03/22 10:53:26;;;;;;;18.48;10.98;;;20.30;24.50;;;;;;4973744;28;20061;-69
2022/03/22 10:55:52;;;;;;;19.17;10.07;;;20.20;24.00;;;;;;4972525;28;20112;-69
2022/03/22 10:58:25;;;;;;;16.45;10.18;;;20.20;23.60;;;;;;4956335;28;20415;-69
2022/03/22 11:00:52;;;;;;;14.68;9.20;;;20.10;23.90;;;;;;4973654;28;20054;-69
2022/03/22 11:03:18;;;;;;;17.40;9.57;;;20.10;23.90;;;;;;4970663;28;20023;-71
2022/03/22 11:05:46;;;;;;;15.18;9.23;;;20.10;24.30;;;;;;4972163;28;20027;-71
2022/03/22 11:08:12;;;;;;;13.75;9.10;;;20.30;25.20;;;;;;4972239;28;20088;-71
2022/03/22 11:10:39;;;;;;;17.90;8.82;;;20.60;24.60;;;;;;4973377;28;20106;-70
2022/03/22 11:13:04;;;;;;;14.13;9.10;;;20.90;24.50;;;;;;4971665;28;20114;-71
2022/03/22 11:15:35;;;;;;;15.68;9.40;;;21.10;24.50;;;;;;4973116;28;20030;-68
2022/03/22 11:18:02;;;;;;;15.95;8.60;;;21.10;24.80;;;;;;4973038;28;20031;-69
2022/03/22 11:20:28;;;;;;;14.30;8.50;;;21.00;25.00;;;;;;4956222;28;20031;-69
2022/03/22 11:22:57;;;;;;;12.85;8.20;;;21.00;25.90;;;;;;4972989;28;20030;-69
2022/03/22 11:25:35;;;;;;;16.75;8.52;;;20.90;25.70;;;;;;4971930;28;20135;-69
2022/03/22 11:28:04;;;;;;;15.73;8.70;;;20.80;26.00;;;;;;4973225;28;20099;-70
2022/03/22 11:30:31;;;;;;;17.40;8.77;;;20.80;25.90;;;;;;4955787;28;20428;-70
2022/03/22 11:35:45;;;;;;;13.90;8.25;;;20.80;26.10;;;;;;4971811;28;20031;-68
2022/03/22 11:38:13;;;;;;;19.45;8.85;;;20.70;26.60;;;;;;4971731;28;20037;-69
2022/03/22 11:43:42;;;;;;;14.05;8.07;;;20.80;30.80;;;;;;4972594;28;20026;-69
2022/03/22 11:46:08;;;;;;;17.35;8.10;;;20.80;33.30;;;;;;4971710;28;20046;-68
2022/03/22 11:48:39;;;;;;;15.73;7.97;;;20.70;33.90;;;;;;4973209;28;20039;-68
2022/03/22 11:51:09;;;;;;;13.52;7.97;;;20.60;28.50;;;;;;4971684;28;20043;-71
2022/03/22 11:53:43;;;;;;;18.60;7.80;;;20.50;28.80;;;;;;4970974;28;20058;-71
2022/03/22 11:56:10;;;;;;;16.63;7.93;;;20.60;29.00;;;;;;4971524;28;20038;-72
2022/03/22 11:58:36;;;;;;;19.92;7.50;;;20.60;28.60;;;;;;4971239;28;20130;-71
2022/03/22 12:01:03;;;;;;;16.58;7.25;;;20.60;28.90;;;;;;4972545;28;20025;-71
2022/03/22 12:03:35;;;;;;;12.77;6.90;;;20.70;29.80;;;;;;4955274;28;20023;-71
2022/03/22 12:06:11;;;;;;;14.13;7.28;;;20.70;29.20;;;;;;4972520;28;20030;-72
2022/03/22 12:08:37;;;;;;;14.45;7.32;;;20.70;28.90;;;;;;4971154;28;20030;-72
2022/03/22 12:11:03;;;;;;;14.15;7.20;;;20.70;28.60;;;;;;4972263;28;20038;-70
2022/03/22 12:13:30;;;;;;;19.35;11.10;;;20.70;28.60;;;;;;4971151;28;20046;-69
2022/03/22 12:16:00;;;;;;;28.02;19.13;;;20.70;28.50;;;;;;4971028;28;20066;-69
2022/03/22 12:18:32;;;;;;;27.40;18.80;;;20.70;28.10;;;;;;4955186;28;20057;-69
2022/03/22 12:20:59;;;;;;;22.40;15.15;;;20.70;28.60;;;;;;4972094;28;20035;-71
2022/03/22 12:23:26;;;;;;;23.88;14.13;;;20.70;28.60;;;;;;4954597;28;20399;-71
2022/03/22 12:25:52;;;;;;;25.90;13.65;;;20.80;27.70;;;;;;4971080;28;20101;-70
2022/03/22 12:28:18;;;;;;;20.65;12.88;;;20.80;28.10;;;;;;4970982;28;20492;-71
2022/03/22 12:30:45;;;;;;;20.58;13.27;;;20.80;28.20;;;;;;4972437;28;20030;-71
2022/03/22 12:33:21;;;;;;;24.70;10.75;;;20.80;28.50;;;;;;4971895;28;20045;-71
2022/03/22 12:35:49;;;;;;;20.83;10.18;;;20.80;28.10;;;;;;4972323;28;20144;-71
2022/03/22 12:38:16;;;;;;;21.25;9.80;;;20.90;28.00;;;;;;4971495;28;20487;-72
2022/03/22 12:40:43;;;;;;;16.33;9.93;;;20.90;27.20;;;;;;4971056;28;20034;-72
2022/03/22 12:43:12;;;;;;;17.95;8.88;;;20.90;28.50;;;;;;4970693;28;20026;-70
2022/03/22 12:45:42;;;;;;;17.77;8.13;;;20.90;28.20;;;;;;4972143;28;20030;-70
2022/03/22 12:48:08;;;;;;;17.90;7.35;;;20.90;28.40;;;;;;4972149;28;20023;-70
2022/03/22 12:50:34;;;;;;;20.33;8.05;;;21.00;29.40;;;;;;4970893;28;20086;-70
2022/03/22 12:52:59;;;;;;;16.70;8.55;;;21.00;30.50;;;;;;4972663;28;20050;-71
2022/03/22 12:55:27;;;;;;;17.90;8.23;;;21.00;34.60;;;;;;4973074;28;20478;-70
2022/03/22 12:57:56;;;;;;;13.35;8.18;;;21.10;33.70;;;;;;4957326;28;20054;-70
2022/03/22 13:00:28;;;;;;;19.70;8.52;;;21.10;34.60;;;;;;4974316;28;20035;-69
2022/03/22 13:02:55;;;;;;;22.85;9.07;;;21.20;35.10;;;;;;4975611;28;20026;-70
2022/03/22 13:05:26;;;;;;;17.00;8.35;;;21.40;35.70;;;;;;4975466;28;20093;-70
2022/03/22 13:07:52;;;;;;;14.32;8.02;;;21.40;38.70;;;;;;4975806;28;20027;-70
2022/03/22 13:13:02;;;;;;;14.50;7.57;;;21.50;40.60;;;;;;4974285;28;20472;-70
2022/03/22 13:15:27;;;;;;;16.05;7.88;;;21.50;39.40;;;;;;4974319;28;20034;-71